sensor_id;sensor_type;location;lat;lon;timestamp;pressure;altitude;pressure_sealevel;temperature
40199;BMP280;25906;43.536;26.068;2023-10-09T00:02:27;99589.28;;;12.63
40199;BMP280;25906;43.536;26.068;2023-10-09T00:05:14;99589.44;;;12.36
40199;BMP280;25906;43.536;26.068;2023-10-09T00:08:08;99562.81;;;12.40
40199;BMP280;25906;43.536;26.068;2023-10-09T00:10:54;99564.63;;;12.63
40199;BMP280;25906;43.536;26.068;2023-10-09T00:13:40;99565.09;;;12.41
40199;BMP280;25906;43.536;26.068;2023-10-09T00:16:35;99567.03;;;12.57
40199;BMP280;25906;43.536;26.068;2023-10-09T00:19:22;99561.16;;;12.46
40199;BMP280;25906;43.536;26.068;2023-10-09T00:22:18;99563.47;;;12.64
40199;BMP280;25906;43.536;26.068;2023-10-09T00:25:09;99562.28;;;12.48
40199;BMP280;25906;43.536;26.068;2023-10-09T00:28:06;99564.19;;;12.48
40199;BMP280;25906;43.536;26.068;2023-10-09T00:30:55;99575.69;;;12.41
40199;BMP280;25906;43.536;26.068;2023-10-09T00:33:44;99591.47;;;12.48
40199;BMP280;25906;43.536;26.068;2023-10-09T00:36:30;99596.78;;;12.48
40199;BMP280;25906;43.536;26.068;2023-10-09T00:39:21;99602.91;;;12.45
40199;BMP280;25906;43.536;26.068;2023-10-09T00:42:36;99603.00;;;12.42
40199;BMP280;25906;43.536;26.068;2023-10-09T00:45:24;99598.94;;;12.53
40199;BMP280;25906;43.536;26.068;2023-10-09T00:48:13;99609.25;;;12.32
40199;BMP280;25906;43.536;26.068;2023-10-09T00:51:08;99613.63;;;12.42
40199;BMP280;25906;43.536;26.068;2023-10-09T00:54:04;99610.91;;;12.26
40199;BMP280;25906;43.536;26.068;2023-10-09T00:56:59;99601.22;;;12.35
40199;BMP280;25906;43.536;26.068;2023-10-09T00:59:54;99618.31;;;12.34
40199;BMP280;25906;43.536;26.068;2023-10-09T01:02:44;99626.91;;;12.22
40199;BMP280;25906;43.536;26.068;2023-10-09T01:05:30;99633.53;;;12.30
40199;BMP280;25906;43.536;26.068;2023-10-09T01:08:16;99642.19;;;12.15
40199;BMP280;25906;43.536;26.068;2023-10-09T01:11:11;99638.44;;;12.12
40199;BMP280;25906;43.536;26.068;2023-10-09T01:14:15;99634.50;;;12.20
40199;BMP280;25906;43.536;26.068;2023-10-09T01:17:02;99637.59;;;12.19
40199;BMP280;25906;43.536;26.068;2023-10-09T01:19:47;99626.97;;;12.19
40199;BMP280;25906;43.536;26.068;2023-10-09T01:22:33;99630.22;;;12.26
40199;BMP280;25906;43.536;26.068;2023-10-09T01:25:19;99636.63;;;12.29
40199;BMP280;25906;43.536;26.068;2023-10-09T01:28:05;99636.00;;;12.01
40199;BMP280;25906;43.536;26.068;2023-10-09T01:30:51;99640.09;;;12.06
40199;BMP280;25906;43.536;26.068;2023-10-09T01:33:36;99648.94;;;11.99
40199;BMP280;25906;43.536;26.068;2023-10-09T01:36:22;99647.59;;;12.11
40199;BMP280;25906;43.536;26.068;2023-10-09T01:39:16;99644.38;;;12.00
40199;BMP280;25906;43.536;26.068;2023-10-09T01:42:18;99646.41;;;12.12
40199;BMP280;25906;43.536;26.068;2023-10-09T01:45:29;99658.13;;;12.15
40199;BMP280;25906;43.536;26.068;2023-10-09T01:48:35;99661.25;;;12.10
40199;BMP280;25906;43.536;26.068;2023-10-09T01:51:24;99674.94;;;12.08
40199;BMP280;25906;43.536;26.068;2023-10-09T01:54:10;99680.63;;;12.07
40199;BMP280;25906;43.536;26.068;2023-10-09T01:57:03;99678.03;;;12.03
40199;BMP280;25906;43.536;26.068;2023-10-09T01:59:51;99668.44;;;12.09
40199;BMP280;25906;43.536;26.068;2023-10-09T02:02:40;99668.13;;;12.07
40199;BMP280;25906;43.536;26.068;2023-10-09T02:05:30;99671.91;;;12.06
40199;BMP280;25906;43.536;26.068;2023-10-09T02:08:18;99677.84;;;12.14
40199;BMP280;25906;43.536;26.068;2023-10-09T02:11:12;99682.72;;;11.95
40199;BMP280;25906;43.536;26.068;2023-10-09T02:13:59;99689.50;;;11.96
40199;BMP280;25906;43.536;26.068;2023-10-09T02:16:47;99684.72;;;12.11
40199;BMP280;25906;43.536;26.068;2023-10-09T02:19:47;99688.75;;;11.96
40199;BMP280;25906;43.536;26.068;2023-10-09T02:22:37;99688.13;;;11.88
40199;BMP280;25906;43.536;26.068;2023-10-09T02:25:23;99695.56;;;11.97
40199;BMP280;25906;43.536;26.068;2023-10-09T02:28:14;99677.41;;;11.95
40199;BMP280;25906;43.536;26.068;2023-10-09T02:31:12;99687.91;;;12.02
40199;BMP280;25906;43.536;26.068;2023-10-09T02:33:58;99681.72;;;12.09
40199;BMP280;25906;43.536;26.068;2023-10-09T02:36:45;99693.31;;;12.19
40199;BMP280;25906;43.536;26.068;2023-10-09T02:39:34;99699.16;;;12.10
40199;BMP280;25906;43.536;26.068;2023-10-09T02:42:28;99706.28;;;11.93
40199;BMP280;25906;43.536;26.068;2023-10-09T02:45:14;99702.00;;;11.99
40199;BMP280;25906;43.536;26.068;2023-10-09T02:48:09;99706.31;;;11.90
40199;BMP280;25906;43.536;26.068;2023-10-09T02:50:56;99698.34;;;11.90
40199;BMP280;25906;43.536;26.068;2023-10-09T02:53:42;99710.63;;;11.80
40199;BMP280;25906;43.536;26.068;2023-10-09T02:56:28;99722.19;;;11.93
40199;BMP280;25906;43.536;26.068;2023-10-09T02:59:28;99728.66;;;11.89
40199;BMP280;25906;43.536;26.068;2023-10-09T03:02:15;99731.13;;;11.80
40199;BMP280;25906;43.536;26.068;2023-10-09T03:05:01;99716.47;;;11.72
40199;BMP280;25906;43.536;26.068;2023-10-09T03:07:48;99720.50;;;11.80
40199;BMP280;25906;43.536;26.068;2023-10-09T03:10:35;99718.81;;;11.89
40199;BMP280;25906;43.536;26.068;2023-10-09T03:13:20;99723.22;;;11.99
40199;BMP280;25906;43.536;26.068;2023-10-09T03:16:07;99721.19;;;12.07
40199;BMP280;25906;43.536;26.068;2023-10-09T03:18:54;99713.50;;;11.89
40199;BMP280;25906;43.536;26.068;2023-10-09T03:21:39;99722.59;;;11.92
40199;BMP280;25906;43.536;26.068;2023-10-09T03:24:26;99728.56;;;11.96
40199;BMP280;25906;43.536;26.068;2023-10-09T03:27:16;99739.78;;;11.80
40199;BMP280;25906;43.536;26.068;2023-10-09T03:30:01;99739.38;;;11.85
40199;BMP280;25906;43.536;26.068;2023-10-09T03:32:51;99735.03;;;11.72
40199;BMP280;25906;43.536;26.068;2023-10-09T03:35:37;99745.41;;;11.63
40199;BMP280;25906;43.536;26.068;2023-10-09T03:38:24;99739.63;;;11.68
40199;BMP280;25906;43.536;26.068;2023-10-09T03:41:14;99736.72;;;11.85
40199;BMP280;25906;43.536;26.068;2023-10-09T03:44:03;99751.00;;;11.68
40199;BMP280;25906;43.536;26.068;2023-10-09T03:46:49;99754.50;;;11.62
40199;BMP280;25906;43.536;26.068;2023-10-09T03:49:36;99757.94;;;11.58
40199;BMP280;25906;43.536;26.068;2023-10-09T03:52:24;99752.66;;;11.32
40199;BMP280;25906;43.536;26.068;2023-10-09T03:55:10;99759.44;;;11.33
40199;BMP280;25906;43.536;26.068;2023-10-09T03:57:56;99760.09;;;11.40
40199;BMP280;25906;43.536;26.068;2023-10-09T04:00:46;99755.44;;;11.48
40199;BMP280;25906;43.536;26.068;2023-10-09T04:03:31;99756.34;;;11.65
40199;BMP280;25906;43.536;26.068;2023-10-09T04:06:17;99760.59;;;11.58
40199;BMP280;25906;43.536;26.068;2023-10-09T04:09:04;99767.22;;;11.17
40199;BMP280;25906;43.536;26.068;2023-10-09T04:12:12;99759.44;;;11.33
40199;BMP280;25906;43.536;26.068;2023-10-09T04:15:06;99763.88;;;11.43
40199;BMP280;25906;43.536;26.068;2023-10-09T04:17:51;99769.38;;;11.55
40199;BMP280;25906;43.536;26.068;2023-10-09T04:20:37;99771.19;;;11.58
40199;BMP280;25906;43.536;26.068;2023-10-09T04:23:42;99790.31;;;11.46
40199;BMP280;25906;43.536;26.068;2023-10-09T04:26:46;99795.41;;;11.61
40199;BMP280;25906;43.536;26.068;2023-10-09T04:29:32;99795.66;;;11.43
40199;BMP280;25906;43.536;26.068;2023-10-09T04:32:24;99793.31;;;11.48
40199;BMP280;25906;43.536;26.068;2023-10-09T04:35:13;99798.94;;;11.50
40199;BMP280;25906;43.536;26.068;2023-10-09T04:38:08;99801.31;;;11.15
40199;BMP280;25906;43.536;26.068;2023-10-09T04:40:53;99807.28;;;11.22
40199;BMP280;25906;43.536;26.068;2023-10-09T04:43:44;99809.13;;;11.25
40199;BMP280;25906;43.536;26.068;2023-10-09T04:46:30;99811.19;;;11.11
40199;BMP280;25906;43.536;26.068;2023-10-09T04:49:28;99819.88;;;11.15
40199;BMP280;25906;43.536;26.068;2023-10-09T04:52:15;99813.09;;;11.10
40199;BMP280;25906;43.536;26.068;2023-10-09T04:55:23;99817.84;;;11.26
40199;BMP280;25906;43.536;26.068;2023-10-09T04:58:12;99812.03;;;11.04
40199;BMP280;25906;43.536;26.068;2023-10-09T05:01:08;99813.97;;;11.00
40199;BMP280;25906;43.536;26.068;2023-10-09T05:04:03;99808.06;;;10.85
40199;BMP280;25906;43.536;26.068;2023-10-09T05:06:49;99818.47;;;11.03
40199;BMP280;25906;43.536;26.068;2023-10-09T05:09:41;99833.53;;;10.76
40199;BMP280;25906;43.536;26.068;2023-10-09T05:12:41;99838.53;;;11.00
40199;BMP280;25906;43.536;26.068;2023-10-09T05:15:31;99839.97;;;11.08
40199;BMP280;25906;43.536;26.068;2023-10-09T05:18:20;99836.78;;;11.24
40199;BMP280;25906;43.536;26.068;2023-10-09T05:21:12;99843.91;;;11.31
40199;BMP280;25906;43.536;26.068;2023-10-09T05:24:02;99857.75;;;11.45
40199;BMP280;25906;43.536;26.068;2023-10-09T05:26:57;99862.28;;;11.45
40199;BMP280;25906;43.536;26.068;2023-10-09T05:30:02;99859.84;;;11.57
40199;BMP280;25906;43.536;26.068;2023-10-09T05:33:06;99870.44;;;11.57
40199;BMP280;25906;43.536;26.068;2023-10-09T05:36:12;99877.75;;;11.50
40199;BMP280;25906;43.536;26.068;2023-10-09T05:39:16;99882.69;;;11.48
40199;BMP280;25906;43.536;26.068;2023-10-09T05:42:22;99889.75;;;11.62
40199;BMP280;25906;43.536;26.068;2023-10-09T05:45:15;99887.44;;;11.94
40199;BMP280;25906;43.536;26.068;2023-10-09T05:48:03;99877.13;;;11.96
40199;BMP280;25906;43.536;26.068;2023-10-09T05:50:49;99885.72;;;12.07
40199;BMP280;25906;43.536;26.068;2023-10-09T05:53:53;99896.78;;;12.02
40199;BMP280;25906;43.536;26.068;2023-10-09T05:56:57;99891.16;;;11.96
40199;BMP280;25906;43.536;26.068;2023-10-09T05:59:55;99894.75;;;11.86
40199;BMP280;25906;43.536;26.068;2023-10-09T06:03:15;99908.03;;;11.83
40199;BMP280;25906;43.536;26.068;2023-10-09T06:06:04;99909.16;;;11.82
40199;BMP280;25906;43.536;26.068;2023-10-09T06:08:50;99907.25;;;11.86
40199;BMP280;25906;43.536;26.068;2023-10-09T06:11:55;99900.44;;;11.85
40199;BMP280;25906;43.536;26.068;2023-10-09T06:15:01;99896.66;;;11.82
40199;BMP280;25906;43.536;26.068;2023-10-09T06:18:17;99895.91;;;11.82
40199;BMP280;25906;43.536;26.068;2023-10-09T06:21:11;99897.88;;;12.04
40199;BMP280;25906;43.536;26.068;2023-10-09T06:24:15;99895.84;;;12.16
40199;BMP280;25906;43.536;26.068;2023-10-09T06:27:01;99896.34;;;12.30
40199;BMP280;25906;43.536;26.068;2023-10-09T06:29:46;99899.31;;;12.36
40199;BMP280;25906;43.536;26.068;2023-10-09T06:32:35;99902.50;;;11.97
40199;BMP280;25906;43.536;26.068;2023-10-09T06:35:22;99897.81;;;12.35
40199;BMP280;25906;43.536;26.068;2023-10-09T06:38:07;99893.31;;;12.55
40199;BMP280;25906;43.536;26.068;2023-10-09T06:41:06;99898.03;;;12.67
40199;BMP280;25906;43.536;26.068;2023-10-09T06:43:52;99893.69;;;12.57
40199;BMP280;25906;43.536;26.068;2023-10-09T06:46:38;99888.59;;;12.43
40199;BMP280;25906;43.536;26.068;2023-10-09T06:49:29;99907.81;;;12.74
40199;BMP280;25906;43.536;26.068;2023-10-09T06:52:18;99905.44;;;12.56
40199;BMP280;25906;43.536;26.068;2023-10-09T06:55:27;99904.97;;;12.61
40199;BMP280;25906;43.536;26.068;2023-10-09T06:58:21;99907.09;;;12.46
40199;BMP280;25906;43.536;26.068;2023-10-09T07:01:13;99906.50;;;12.35
40199;BMP280;25906;43.536;26.068;2023-10-09T07:04:05;99909.13;;;12.62
40199;BMP280;25906;43.536;26.068;2023-10-09T07:07:09;99904.50;;;12.89
40199;BMP280;25906;43.536;26.068;2023-10-09T07:09:58;99900.53;;;12.97
40199;BMP280;25906;43.536;26.068;2023-10-09T07:13:02;99906.31;;;13.32
40199;BMP280;25906;43.536;26.068;2023-10-09T07:15:49;99913.38;;;13.22
40199;BMP280;25906;43.536;26.068;2023-10-09T07:19:07;99897.16;;;13.17
40199;BMP280;25906;43.536;26.068;2023-10-09T07:22:10;99900.34;;;13.28
40199;BMP280;25906;43.536;26.068;2023-10-09T07:25:08;99888.81;;;13.54
40199;BMP280;25906;43.536;26.068;2023-10-09T07:28:17;99895.75;;;13.48
40199;BMP280;25906;43.536;26.068;2023-10-09T07:31:21;99902.75;;;13.58
40199;BMP280;25906;43.536;26.068;2023-10-09T07:34:12;99895.75;;;13.68
40199;BMP280;25906;43.536;26.068;2023-10-09T07:37:16;99892.56;;;13.73
40199;BMP280;25906;43.536;26.068;2023-10-09T07:40:04;99898.25;;;13.91
40199;BMP280;25906;43.536;26.068;2023-10-09T07:42:53;99895.59;;;13.91
40199;BMP280;25906;43.536;26.068;2023-10-09T07:45:49;99894.91;;;14.51
40199;BMP280;25906;43.536;26.068;2023-10-09T07:48:35;99893.06;;;14.65
40199;BMP280;25906;43.536;26.068;2023-10-09T07:51:40;99900.84;;;14.88
40199;BMP280;25906;43.536;26.068;2023-10-09T07:54:28;99903.56;;;15.13
40199;BMP280;25906;43.536;26.068;2023-10-09T07:57:17;99907.13;;;14.94
40199;BMP280;25906;43.536;26.068;2023-10-09T08:00:03;99912.44;;;14.81
40199;BMP280;25906;43.536;26.068;2023-10-09T08:02:57;99908.09;;;14.87
40199;BMP280;25906;43.536;26.068;2023-10-09T08:05:45;99899.16;;;15.06
40199;BMP280;25906;43.536;26.068;2023-10-09T08:08:30;99903.13;;;15.15
40199;BMP280;25906;43.536;26.068;2023-10-09T08:11:19;99911.72;;;15.47
40199;BMP280;25906;43.536;26.068;2023-10-09T08:14:23;99899.69;;;15.55
40199;BMP280;25906;43.536;26.068;2023-10-09T08:17:20;99903.28;;;15.61
40199;BMP280;25906;43.536;26.068;2023-10-09T08:20:06;99904.06;;;15.75
40199;BMP280;25906;43.536;26.068;2023-10-09T08:22:58;99908.94;;;15.38
40199;BMP280;25906;43.536;26.068;2023-10-09T08:25:43;99915.31;;;15.28
40199;BMP280;25906;43.536;26.068;2023-10-09T08:28:43;99908.34;;;15.59
40199;BMP280;25906;43.536;26.068;2023-10-09T08:31:29;99905.44;;;15.54
40199;BMP280;25906;43.536;26.068;2023-10-09T08:34:30;99905.22;;;15.86
40199;BMP280;25906;43.536;26.068;2023-10-09T08:37:33;99907.47;;;15.88
40199;BMP280;25906;43.536;26.068;2023-10-09T08:40:20;99901.47;;;16.09
40199;BMP280;25906;43.536;26.068;2023-10-09T08:43:15;99901.34;;;16.12
40199;BMP280;25906;43.536;26.068;2023-10-09T08:46:01;99887.50;;;16.39
40199;BMP280;25906;43.536;26.068;2023-10-09T08:48:48;99873.50;;;16.57
40199;BMP280;25906;43.536;26.068;2023-10-09T08:51:33;99879.94;;;16.25
40199;BMP280;25906;43.536;26.068;2023-10-09T08:54:20;99878.94;;;16.32
40199;BMP280;25906;43.536;26.068;2023-10-09T08:57:06;99870.97;;;16.19
40199;BMP280;25906;43.536;26.068;2023-10-09T08:59:54;99855.09;;;16.37
40199;BMP280;25906;43.536;26.068;2023-10-09T09:02:41;99858.53;;;16.59
40199;BMP280;25906;43.536;26.068;2023-10-09T09:05:28;99848.06;;;16.52
40199;BMP280;25906;43.536;26.068;2023-10-09T09:08:23;99830.88;;;16.53
40199;BMP280;25906;43.536;26.068;2023-10-09T09:11:14;99822.06;;;16.75
40199;BMP280;25906;43.536;26.068;2023-10-09T09:14:03;99812.53;;;16.64
40199;BMP280;25906;43.536;26.068;2023-10-09T09:16:57;99820.88;;;16.97
40199;BMP280;25906;43.536;26.068;2023-10-09T09:19:43;99816.38;;;17.25
40199;BMP280;25906;43.536;26.068;2023-10-09T09:22:55;99818.47;;;17.30
40199;BMP280;25906;43.536;26.068;2023-10-09T09:25:43;99831.63;;;17.55
40199;BMP280;25906;43.536;26.068;2023-10-09T09:28:29;99832.22;;;17.50
40199;BMP280;25906;43.536;26.068;2023-10-09T09:31:24;99828.53;;;17.57
40199;BMP280;25906;43.536;26.068;2023-10-09T09:34:09;99845.13;;;17.43
40199;BMP280;25906;43.536;26.068;2023-10-09T09:37:07;99836.56;;;17.57
40199;BMP280;25906;43.536;26.068;2023-10-09T09:40:03;99832.81;;;17.54
40199;BMP280;25906;43.536;26.068;2023-10-09T09:43:01;99821.56;;;18.05
40199;BMP280;25906;43.536;26.068;2023-10-09T09:45:52;99812.03;;;17.95
40199;BMP280;25906;43.536;26.068;2023-10-09T09:48:38;99813.22;;;17.94
40199;BMP280;25906;43.536;26.068;2023-10-09T09:51:31;99805.41;;;17.32
40199;BMP280;25906;43.536;26.068;2023-10-09T09:54:16;99806.38;;;18.02
40199;BMP280;25906;43.536;26.068;2023-10-09T09:57:02;99794.31;;;18.06
40199;BMP280;25906;43.536;26.068;2023-10-09T09:59:54;99795.50;;;17.87
40199;BMP280;25906;43.536;26.068;2023-10-09T10:02:42;99787.16;;;17.67
40199;BMP280;25906;43.536;26.068;2023-10-09T10:05:29;99786.44;;;17.94
40199;BMP280;25906;43.536;26.068;2023-10-09T10:08:22;99777.97;;;18.13
40199;BMP280;25906;43.536;26.068;2023-10-09T10:11:41;99774.06;;;17.69
40199;BMP280;25906;43.536;26.068;2023-10-09T10:21:14;99740.75;;;17.79
40199;BMP280;25906;43.536;26.068;2023-10-09T10:27:32;99724.50;;;18.19
40199;BMP280;25906;43.536;26.068;2023-10-09T10:30:45;99710.66;;;18.62
40199;BMP280;25906;43.536;26.068;2023-10-09T10:36:43;99702.00;;;18.58
40199;BMP280;25906;43.536;26.068;2023-10-09T10:39:30;99701.72;;;18.56
40199;BMP280;25906;43.536;26.068;2023-10-09T10:42:30;99701.56;;;18.93
40199;BMP280;25906;43.536;26.068;2023-10-09T10:45:22;99704.84;;;18.87
40199;BMP280;25906;43.536;26.068;2023-10-09T10:48:20;99704.91;;;18.46
40199;BMP280;25906;43.536;26.068;2023-10-09T10:51:13;99699.47;;;18.87
40199;BMP280;25906;43.536;26.068;2023-10-09T10:54:08;99692.44;;;18.66
40199;BMP280;25906;43.536;26.068;2023-10-09T10:57:20;99701.53;;;19.16
40199;BMP280;25906;43.536;26.068;2023-10-09T11:00:14;99690.63;;;19.58
40199;BMP280;25906;43.536;26.068;2023-10-09T11:03:21;99668.75;;;19.12
40199;BMP280;25906;43.536;26.068;2023-10-09T11:06:27;99663.78;;;19.20
40199;BMP280;25906;43.536;26.068;2023-10-09T11:09:22;99660.78;;;18.79
40199;BMP280;25906;43.536;26.068;2023-10-09T11:12:09;99646.69;;;18.94
40199;BMP280;25906;43.536;26.068;2023-10-09T11:15:07;99651.13;;;18.97
40199;BMP280;25906;43.536;26.068;2023-10-09T11:18:14;99633.91;;;18.65
40199;BMP280;25906;43.536;26.068;2023-10-09T11:21:05;99621.72;;;19.55
40199;BMP280;25906;43.536;26.068;2023-10-09T11:23:51;99604.56;;;19.53
40199;BMP280;25906;43.536;26.068;2023-10-09T11:26:37;99597.25;;;19.53
40199;BMP280;25906;43.536;26.068;2023-10-09T11:29:25;99590.13;;;19.79
40199;BMP280;25906;43.536;26.068;2023-10-09T11:32:18;99577.34;;;19.89
40199;BMP280;25906;43.536;26.068;2023-10-09T11:35:14;99577.22;;;18.72
40199;BMP280;25906;43.536;26.068;2023-10-09T11:38:04;99573.06;;;18.95
40199;BMP280;25906;43.536;26.068;2023-10-09T11:41:16;99553.66;;;19.29
40199;BMP280;25906;43.536;26.068;2023-10-09T11:44:04;99541.75;;;19.79
40199;BMP280;25906;43.536;26.068;2023-10-09T11:47:02;99524.25;;;19.84
40199;BMP280;25906;43.536;26.068;2023-10-09T11:50:03;99517.28;;;19.77
40199;BMP280;25906;43.536;26.068;2023-10-09T11:52:56;99515.50;;;20.24
40199;BMP280;25906;43.536;26.068;2023-10-09T11:55:53;99518.84;;;20.39
40199;BMP280;25906;43.536;26.068;2023-10-09T11:58:39;99501.25;;;19.97
40199;BMP280;25906;43.536;26.068;2023-10-09T12:01:25;99507.19;;;18.94
40199;BMP280;25906;43.536;26.068;2023-10-09T12:04:18;99495.63;;;19.46
40199;BMP280;25906;43.536;26.068;2023-10-09T12:07:04;99486.56;;;20.39
40199;BMP280;25906;43.536;26.068;2023-10-09T12:09:52;99491.97;;;20.19
40199;BMP280;25906;43.536;26.068;2023-10-09T12:12:41;99483.72;;;20.22
40199;BMP280;25906;43.536;26.068;2023-10-09T12:15:31;99475.38;;;19.65
40199;BMP280;25906;43.536;26.068;2023-10-09T12:18:23;99477.94;;;19.39
40199;BMP280;25906;43.536;26.068;2023-10-09T12:21:09;99477.72;;;19.58
40199;BMP280;25906;43.536;26.068;2023-10-09T12:24:00;99464.94;;;19.87
40199;BMP280;25906;43.536;26.068;2023-10-09T12:26:46;99458.97;;;20.18
40199;BMP280;25906;43.536;26.068;2023-10-09T12:29:33;99458.47;;;20.40
40199;BMP280;25906;43.536;26.068;2023-10-09T12:32:18;99458.28;;;20.69
40199;BMP280;25906;43.536;26.068;2023-10-09T12:35:06;99458.81;;;20.79
40199;BMP280;25906;43.536;26.068;2023-10-09T12:38:02;99459.50;;;20.68
40199;BMP280;25906;43.536;26.068;2023-10-09T12:40:48;99448.47;;;20.20
40199;BMP280;25906;43.536;26.068;2023-10-09T12:43:36;99445.47;;;20.38
40199;BMP280;25906;43.536;26.068;2023-10-09T12:46:23;99430.28;;;20.30
40199;BMP280;25906;43.536;26.068;2023-10-09T12:49:10;99424.97;;;19.95
40199;BMP280;25906;43.536;26.068;2023-10-09T12:51:56;99430.19;;;20.24
40199;BMP280;25906;43.536;26.068;2023-10-09T12:54:44;99423.75;;;20.16
40199;BMP280;25906;43.536;26.068;2023-10-09T12:57:31;99418.19;;;20.20
40199;BMP280;25906;43.536;26.068;2023-10-09T13:00:17;99421.00;;;20.11
40199;BMP280;25906;43.536;26.068;2023-10-09T13:03:11;99431.22;;;20.06
40199;BMP280;25906;43.536;26.068;2023-10-09T13:06:02;99420.47;;;20.27
40199;BMP280;25906;43.536;26.068;2023-10-09T13:08:52;99407.69;;;20.22
40199;BMP280;25906;43.536;26.068;2023-10-09T13:11:37;99409.25;;;20.28
40199;BMP280;25906;43.536;26.068;2023-10-09T13:14:26;99405.88;;;20.13
40199;BMP280;25906;43.536;26.068;2023-10-09T13:17:12;99393.72;;;20.18
40199;BMP280;25906;43.536;26.068;2023-10-09T13:19:58;99374.94;;;19.97
40199;BMP280;25906;43.536;26.068;2023-10-09T13:22:44;99379.19;;;20.30
40199;BMP280;25906;43.536;26.068;2023-10-09T13:25:34;99383.25;;;19.99
40199;BMP280;25906;43.536;26.068;2023-10-09T13:28:24;99377.72;;;20.08
40199;BMP280;25906;43.536;26.068;2023-10-09T13:31:10;99380.97;;;20.13
40199;BMP280;25906;43.536;26.068;2023-10-09T13:33:59;99381.16;;;20.09
40199;BMP280;25906;43.536;26.068;2023-10-09T13:36:46;99378.75;;;19.91
40199;BMP280;25906;43.536;26.068;2023-10-09T13:39:43;99373.13;;;19.89
40199;BMP280;25906;43.536;26.068;2023-10-09T13:42:52;99375.50;;;19.81
40199;BMP280;25906;43.536;26.068;2023-10-09T13:45:38;99371.31;;;19.80
40199;BMP280;25906;43.536;26.068;2023-10-09T13:48:24;99356.84;;;19.78
40199;BMP280;25906;43.536;26.068;2023-10-09T13:51:10;99359.28;;;19.76
40199;BMP280;25906;43.536;26.068;2023-10-09T13:54:16;99362.59;;;19.85
40199;BMP280;25906;43.536;26.068;2023-10-09T13:57:14;99365.28;;;19.85
40199;BMP280;25906;43.536;26.068;2023-10-09T14:00:00;99359.38;;;19.81
40199;BMP280;25906;43.536;26.068;2023-10-09T14:02:45;99356.19;;;19.83
40199;BMP280;25906;43.536;26.068;2023-10-09T14:05:31;99347.56;;;19.99
40199;BMP280;25906;43.536;26.068;2023-10-09T14:08:22;99349.13;;;20.05
40199;BMP280;25906;43.536;26.068;2023-10-09T14:11:08;99351.50;;;19.78
40199;BMP280;25906;43.536;26.068;2023-10-09T14:14:02;99349.34;;;19.62
40199;BMP280;25906;43.536;26.068;2023-10-09T14:16:48;99350.84;;;19.63
40199;BMP280;25906;43.536;26.068;2023-10-09T14:19:33;99336.28;;;19.49
40199;BMP280;25906;43.536;26.068;2023-10-09T14:22:28;99333.84;;;19.51
40199;BMP280;25906;43.536;26.068;2023-10-09T14:25:14;99334.78;;;19.48
40199;BMP280;25906;43.536;26.068;2023-10-09T14:28:09;99330.22;;;19.54
40199;BMP280;25906;43.536;26.068;2023-10-09T14:30:54;99324.78;;;19.48
40199;BMP280;25906;43.536;26.068;2023-10-09T14:33:44;99317.88;;;19.62
40199;BMP280;25906;43.536;26.068;2023-10-09T14:36:36;99306.31;;;19.36
40199;BMP280;25906;43.536;26.068;2023-10-09T14:39:30;99302.41;;;19.17
40199;BMP280;25906;43.536;26.068;2023-10-09T14:42:18;99301.50;;;19.40
40199;BMP280;25906;43.536;26.068;2023-10-09T14:45:05;99296.47;;;19.13
40199;BMP280;25906;43.536;26.068;2023-10-09T14:47:54;99297.16;;;19.08
40199;BMP280;25906;43.536;26.068;2023-10-09T14:50:46;99294.94;;;19.06
40199;BMP280;25906;43.536;26.068;2023-10-09T14:53:35;99301.28;;;18.88
40199;BMP280;25906;43.536;26.068;2023-10-09T14:56:20;99294.97;;;18.92
40199;BMP280;25906;43.536;26.068;2023-10-09T14:59:13;99305.91;;;18.88
40199;BMP280;25906;43.536;26.068;2023-10-09T15:01:59;99303.56;;;18.96
40199;BMP280;25906;43.536;26.068;2023-10-09T15:04:45;99300.38;;;18.77
40199;BMP280;25906;43.536;26.068;2023-10-09T15:07:30;99300.56;;;18.73
40199;BMP280;25906;43.536;26.068;2023-10-09T15:10:16;99287.25;;;18.64
40199;BMP280;25906;43.536;26.068;2023-10-09T15:13:01;99287.81;;;18.54
40199;BMP280;25906;43.536;26.068;2023-10-09T15:15:49;99285.03;;;18.48
40199;BMP280;25906;43.536;26.068;2023-10-09T15:18:36;99294.84;;;18.51
40199;BMP280;25906;43.536;26.068;2023-10-09T15:21:23;99300.00;;;18.40
40199;BMP280;25906;43.536;26.068;2023-10-09T15:24:16;99295.13;;;18.24
40199;BMP280;25906;43.536;26.068;2023-10-09T15:27:01;99293.97;;;18.16
40199;BMP280;25906;43.536;26.068;2023-10-09T15:29:47;99285.56;;;18.08
40199;BMP280;25906;43.536;26.068;2023-10-09T15:32:34;99287.97;;;17.92
40199;BMP280;25906;43.536;26.068;2023-10-09T15:35:20;99285.63;;;17.85
40199;BMP280;25906;43.536;26.068;2023-10-09T15:38:05;99292.53;;;17.76
40199;BMP280;25906;43.536;26.068;2023-10-09T15:40:51;99281.03;;;17.61
40199;BMP280;25906;43.536;26.068;2023-10-09T15:43:36;99273.06;;;17.52
40199;BMP280;25906;43.536;26.068;2023-10-09T15:46:22;99274.34;;;17.42
40199;BMP280;25906;43.536;26.068;2023-10-09T15:49:08;99266.81;;;17.32
40199;BMP280;25906;43.536;26.068;2023-10-09T15:51:54;99266.38;;;17.24
40199;BMP280;25906;43.536;26.068;2023-10-09T15:54:40;99256.31;;;17.19
40199;BMP280;25906;43.536;26.068;2023-10-09T15:57:28;99260.34;;;17.14
40199;BMP280;25906;43.536;26.068;2023-10-09T16:00:15;99260.53;;;17.11
40199;BMP280;25906;43.536;26.068;2023-10-09T16:03:04;99265.63;;;17.00
40199;BMP280;25906;43.536;26.068;2023-10-09T16:05:53;99269.25;;;16.88
40199;BMP280;25906;43.536;26.068;2023-10-09T16:08:40;99278.16;;;16.85
40199;BMP280;25906;43.536;26.068;2023-10-09T16:11:27;99285.00;;;16.86
40199;BMP280;25906;43.536;26.068;2023-10-09T16:14:12;99275.69;;;16.63
40199;BMP280;25906;43.536;26.068;2023-10-09T16:17:01;99264.13;;;16.66
40199;BMP280;25906;43.536;26.068;2023-10-09T16:19:47;99254.72;;;16.80
40199;BMP280;25906;43.536;26.068;2023-10-09T16:22:33;99257.22;;;16.83
40199;BMP280;25906;43.536;26.068;2023-10-09T16:25:20;99265.44;;;16.71
40199;BMP280;25906;43.536;26.068;2023-10-09T16:28:09;99261.47;;;16.57